createdAt,value
2019-03-30T00:00:01.427Z,933
2019-03-30T00:00:14.384Z,932.95
2019-03-30T00:00:27.356Z,932.99
2019-03-30T00:00:40.420Z,932.95
2019-03-30T00:00:53.407Z,933
2019-03-30T00:01:06.453Z,932.99
2019-03-30T00:01:19.518Z,932.99
2019-03-30T00:01:32.531Z,932.95
2019-03-30T00:01:45.168Z,933.03
2019-03-30T00:01:57.800Z,933.03
2019-03-30T00:02:10.842Z,933.02
2019-03-30T00:02:23.919Z,933.05
2019-03-30T00:02:39.786Z,932.97
2019-03-30T00:02:52.793Z,932.96
2019-03-30T00:03:05.830Z,932.96
2019-03-30T00:03:18.869Z,932.95
2019-03-30T00:03:31.894Z,932.97
2019-03-30T00:03:45.029Z,933
2019-03-30T00:03:58.092Z,932.96
2019-03-30T00:04:10.713Z,933
2019-03-30T00:04:23.732Z,932.99
2019-03-30T00:04:37.187Z,932.99
2019-03-30T00:04:50.171Z,932.93
2019-03-30T00:05:03.145Z,932.96
2019-03-30T00:05:16.220Z,933
2019-03-30T00:05:28.798Z,933.05
2019-03-30T00:05:41.799Z,933.01
2019-03-30T00:05:54.771Z,932.97
2019-03-30T00:06:07.763Z,932.98
2019-03-30T00:06:20.748Z,933.01
2019-03-30T00:06:33.802Z,933.01
2019-03-30T00:06:47.042Z,932.96
2019-03-30T00:06:59.651Z,932.97
2019-03-30T00:07:12.658Z,933.01
2019-03-30T00:07:25.789Z,932.99
2019-03-30T00:07:38.806Z,932.99
2019-03-30T00:07:51.958Z,933.02
2019-03-30T00:08:04.930Z,932.98
2019-03-30T00:08:17.997Z,932.99
2019-03-30T00:08:31.133Z,933.11
2019-03-30T00:08:44.187Z,933
2019-03-30T00:08:56.788Z,933.08
2019-03-30T00:09:09.775Z,933.08
2019-03-30T00:09:22.806Z,933.07
2019-03-30T00:09:35.838Z,933.03
2019-03-30T00:09:48.867Z,933.07
2019-03-30T00:10:01.817Z,933.07
2019-03-30T00:10:14.867Z,933.06
2019-03-30T00:10:27.915Z,933.08
2019-03-30T00:10:40.993Z,933.05
2019-03-30T00:10:54.297Z,933.06
2019-03-30T00:11:07.263Z,933.07
2019-03-30T00:11:20.263Z,933.06
2019-03-30T00:11:32.824Z,933.07
2019-03-30T00:11:45.843Z,933.02
2019-03-30T00:12:01.583Z,933.05
2019-03-30T00:12:14.672Z,933.08
2019-03-30T00:12:30.175Z,933.01
2019-03-30T00:12:43.213Z,933.07
2019-03-30T00:12:56.227Z,933.05
2019-03-30T00:13:09.259Z,933.13
2019-03-30T00:13:22.387Z,933.05
2019-03-30T00:13:35.291Z,933
2019-03-30T00:13:48.299Z,933.04
2019-03-30T00:14:01.323Z,933.06
2019-03-30T00:14:14.378Z,933.1
2019-03-30T00:14:27.445Z,933.07
2019-03-30T00:14:40.532Z,933.05
2019-03-30T00:14:53.498Z,933.03
2019-03-30T00:15:06.586Z,933.1
2019-03-30T00:15:19.685Z,933.03
2019-03-30T00:15:32.671Z,933.11
2019-03-30T00:15:45.710Z,932.97
2019-03-30T00:15:58.752Z,933.03
2019-03-30T00:16:11.412Z,933.02
2019-03-30T00:16:24.513Z,933.03
2019-03-30T00:16:37.530Z,933.06
2019-03-30T00:16:50.559Z,933.06
2019-03-30T00:17:03.591Z,933.14
2019-03-30T00:17:16.675Z,933.09
2019-03-30T00:17:29.748Z,933.07
2019-03-30T00:17:42.806Z,933.05
2019-03-30T00:17:55.815Z,933.05
2019-03-30T00:18:08.703Z,932.97
2019-03-30T00:18:21.839Z,932.94
2019-03-30T00:18:34.819Z,933.04
2019-03-30T00:18:51.431Z,933.13
2019-03-30T00:19:04.531Z,933.23
2019-03-30T00:19:17.634Z,933.1
2019-03-30T00:19:44.681Z,933.14
2019-03-30T00:19:57.653Z,933.05
2019-03-30T00:20:10.630Z,933.05
2019-03-30T00:20:23.595Z,933.03
2019-03-30T00:20:36.656Z,933.08
2019-03-30T00:20:49.798Z,933.07
2019-03-30T00:21:02.742Z,933.11
2019-03-30T00:21:15.710Z,933.14
2019-03-30T00:21:28.659Z,933.1
2019-03-30T00:21:41.638Z,933.06
2019-03-30T00:21:54.657Z,933.06
2019-03-30T00:22:07.726Z,933.12
2019-03-30T00:22:20.729Z,933.09
2019-03-30T00:22:33.678Z,933.14
2019-03-30T00:22:46.710Z,933.14
2019-03-30T00:22:59.758Z,933.07
2019-03-30T00:23:12.772Z,933.15
2019-03-30T00:23:25.812Z,933.09
2019-03-30T00:23:38.817Z,933.09
2019-03-30T00:23:51.921Z,933.11
2019-03-30T00:24:04.982Z,933.12
2019-03-30T00:24:18.087Z,933.18
2019-03-30T00:24:31.099Z,933.14
2019-03-30T00:24:44.032Z,933.14
2019-03-30T00:24:56.740Z,933.12
2019-03-30T00:25:09.812Z,933.11
2019-03-30T00:25:22.872Z,933.13
2019-03-30T00:25:35.868Z,933.1
2019-03-30T00:25:48.836Z,933.11
2019-03-30T00:26:01.871Z,933.11
2019-03-30T00:26:14.812Z,933.13
2019-03-30T00:26:27.863Z,933.12
2019-03-30T00:26:40.967Z,933.11
2019-03-30T00:26:54.155Z,933.12
2019-03-30T00:27:07.181Z,933.09
2019-03-30T00:27:20.164Z,933.1
2019-03-30T00:27:33.194Z,933.12
2019-03-30T00:27:46.283Z,933.15
2019-03-30T00:27:58.883Z,933.11
2019-03-30T00:28:11.967Z,933.15
2019-03-30T00:28:25.071Z,933.13
2019-03-30T00:28:38.137Z,933.14
2019-03-30T00:28:51.263Z,933.14
2019-03-30T00:29:04.280Z,933.16
2019-03-30T00:29:17.252Z,933.17
2019-03-30T00:29:30.336Z,933.15
2019-03-30T00:29:43.281Z,933.15
2019-03-30T00:29:56.346Z,933.17
2019-03-30T00:30:08.941Z,933.18
2019-03-30T00:30:23.410Z,933.16
2019-03-30T00:30:36.432Z,933.17
2019-03-30T00:30:49.813Z,933.18
2019-03-30T00:31:02.862Z,933.15
2019-03-30T00:31:15.850Z,933.19
2019-03-30T00:31:28.842Z,933.16
2019-03-30T00:31:41.868Z,933.22
2019-03-30T00:31:54.848Z,933.16
2019-03-30T00:32:07.962Z,933.21
2019-03-30T00:32:21.002Z,933.19
2019-03-30T00:32:34.071Z,933.21
2019-03-30T00:32:47.221Z,933.2
2019-03-30T00:33:00.173Z,933.17
2019-03-30T00:33:13.248Z,933.2
2019-03-30T00:33:26.289Z,933.13
2019-03-30T00:33:39.349Z,933.16
2019-03-30T00:33:52.376Z,933.16
2019-03-30T00:34:05.382Z,933.2
2019-03-30T00:34:18.317Z,933.21
2019-03-30T00:34:31.337Z,933.14
2019-03-30T00:34:45.374Z,933.19
2019-03-30T00:34:58.358Z,933.16
2019-03-30T00:35:11.321Z,933.22
2019-03-30T00:35:24.325Z,933.16
2019-03-30T00:35:37.422Z,933.12
2019-03-30T00:35:50.440Z,933.11
2019-03-30T00:36:03.489Z,933.13
2019-03-30T00:36:16.508Z,933.17
2019-03-30T00:36:29.589Z,933.1
2019-03-30T00:36:42.652Z,933.11
2019-03-30T00:36:55.616Z,933.15
2019-03-30T00:37:08.686Z,933.13
2019-03-30T00:37:21.268Z,933.13
2019-03-30T00:37:34.292Z,933.11
2019-03-30T00:37:47.194Z,933.09
2019-03-30T00:38:00.170Z,933.15
2019-03-30T00:38:13.200Z,933.05
2019-03-30T00:38:26.251Z,933.06
2019-03-30T00:38:39.212Z,933.11
2019-03-30T00:38:52.197Z,933.07
2019-03-30T00:39:05.233Z,933.13
2019-03-30T00:39:18.329Z,933.1
2019-03-30T00:39:31.399Z,933.13
2019-03-30T00:39:44.431Z,933.08
2019-03-30T00:39:57.453Z,933.1
2019-03-30T00:40:10.561Z,933.09
2019-03-30T00:40:23.566Z,933.09
2019-03-30T00:40:36.570Z,933.05
2019-03-30T00:40:49.742Z,933.04
2019-03-30T00:41:02.877Z,933.08
2019-03-30T00:41:15.930Z,933.08
2019-03-30T00:41:29.009Z,933.06
2019-03-30T00:41:42.025Z,933.11
2019-03-30T00:41:55.123Z,933.11
2019-03-30T00:42:08.158Z,933.08
2019-03-30T00:42:21.102Z,933.13
2019-03-30T00:42:34.122Z,933.13
2019-03-30T00:42:47.187Z,933.1
2019-03-30T00:43:00.241Z,933.13
2019-03-30T00:43:13.242Z,933.11
2019-03-30T00:43:26.343Z,933.09
2019-03-30T00:43:39.409Z,933.15
2019-03-30T00:43:52.432Z,933.12
2019-03-30T00:44:05.460Z,933.15
2019-03-30T00:44:18.083Z,933.05
2019-03-30T00:44:31.151Z,933.12
2019-03-30T00:44:44.203Z,933.1
2019-03-30T00:44:57.382Z,933.13
2019-03-30T00:45:10.523Z,933.24
2019-03-30T00:45:23.596Z,933.12
2019-03-30T00:45:36.236Z,933.15
2019-03-30T00:45:49.185Z,933.11
2019-03-30T00:46:02.183Z,933.12
2019-03-30T00:46:14.682Z,933.09
2019-03-30T00:46:27.208Z,933.1
2019-03-30T00:46:40.229Z,933.09
2019-03-30T00:46:53.229Z,933.11
2019-03-30T00:47:06.212Z,933.11
2019-03-30T00:47:19.268Z,933.1
2019-03-30T00:47:32.270Z,933.15
2019-03-30T00:47:45.259Z,933.13
2019-03-30T00:47:57.810Z,933.16
2019-03-30T00:48:10.820Z,933.15
2019-03-30T00:48:23.342Z,933.17
2019-03-30T00:48:36.292Z,933.11
2019-03-30T00:48:49.713Z,933.09
2019-03-30T00:49:02.868Z,933.08
2019-03-30T00:49:15.419Z,933.15
2019-03-30T00:49:28.430Z,933.12
2019-03-30T00:49:55.834Z,933.07
2019-03-30T00:50:08.862Z,933.1
2019-03-30T00:50:21.861Z,933.13
2019-03-30T00:50:34.898Z,933.15
2019-03-30T00:50:48.204Z,933.08
2019-03-30T00:51:01.218Z,933.09
2019-03-30T00:51:14.298Z,933.12
2019-03-30T00:51:27.428Z,933.08
2019-03-30T00:51:40.085Z,933.11
2019-03-30T00:51:53.096Z,933.11
2019-03-30T00:52:06.130Z,933.09
2019-03-30T00:52:19.108Z,933.1
2019-03-30T00:52:32.071Z,933.13
2019-03-30T00:52:45.081Z,933.13
2019-03-30T00:52:58.171Z,933.13
2019-03-30T00:53:11.193Z,933.13
2019-03-30T00:53:24.184Z,933.11
2019-03-30T00:53:37.205Z,933.12
2019-03-30T00:53:50.208Z,933.17
2019-03-30T00:54:03.185Z,933.11
2019-03-30T00:54:16.132Z,933.09
2019-03-30T00:54:29.121Z,933.18
2019-03-30T00:54:42.109Z,933.12
2019-03-30T00:54:55.145Z,933.13
2019-03-30T00:55:08.258Z,933.09
2019-03-30T00:55:20.868Z,933.09
2019-03-30T00:55:33.997Z,933.14
2019-03-30T00:55:47.209Z,933.12
2019-03-30T00:56:00.248Z,933.09
2019-03-30T00:56:13.240Z,933.22
2019-03-30T00:56:25.790Z,933.14
2019-03-30T00:56:38.710Z,933.16
2019-03-30T00:56:51.722Z,933.13
2019-03-30T00:57:04.708Z,933.07
2019-03-30T00:57:17.830Z,933.09
2019-03-30T00:57:30.874Z,933.08
2019-03-30T00:57:43.880Z,933.07
2019-03-30T00:57:57.369Z,933.1
2019-03-30T00:58:10.292Z,933.06
2019-03-30T00:58:26.606Z,933.04
2019-03-30T00:58:39.663Z,933.07
2019-03-30T00:58:52.660Z,933.01
2019-03-30T00:59:05.702Z,933.04
2019-03-30T00:59:18.616Z,933.08
2019-03-30T00:59:31.634Z,933.1
2019-03-30T00:59:44.710Z,933.05
2019-03-30T00:59:57.764Z,933.07
2019-03-30T01:00:10.813Z,933.05
2019-03-30T01:00:23.851Z,933.06
2019-03-30T01:00:36.865Z,933.02
2019-03-30T01:00:49.813Z,933
2019-03-30T01:01:03.276Z,933
2019-03-30T01:01:16.327Z,933
2019-03-30T01:01:29.518Z,933.02
2019-03-30T01:01:42.566Z,933
2019-03-30T01:01:55.619Z,932.97
2019-03-30T01:02:08.693Z,932.98
2019-03-30T01:02:21.248Z,932.98
2019-03-30T01:02:34.314Z,932.98
2019-03-30T01:02:47.331Z,932.95
2019-03-30T01:03:00.330Z,933
2019-03-30T01:03:13.346Z,932.98
2019-03-30T01:03:26.336Z,933
2019-03-30T01:03:39.364Z,933.02
2019-03-30T01:03:52.366Z,933.01
2019-03-30T01:04:05.384Z,933.01
2019-03-30T01:04:18.323Z,933.01
2019-03-30T01:04:31.345Z,933.02
2019-03-30T01:04:44.373Z,933
2019-03-30T01:04:57.367Z,933.06
2019-03-30T01:05:10.338Z,932.99
2019-03-30T01:05:23.348Z,933
2019-03-30T01:05:36.296Z,933.02
2019-03-30T01:05:49.297Z,933.02
2019-03-30T01:06:05.213Z,932.97
2019-03-30T01:06:18.212Z,932.99
2019-03-30T01:06:31.193Z,932.99
2019-03-30T01:06:44.286Z,933.01
2019-03-30T01:06:57.292Z,933.04
2019-03-30T01:07:10.391Z,932.98
2019-03-30T01:07:23.336Z,933.02
2019-03-30T01:07:36.321Z,932.99
2019-03-30T01:07:49.400Z,933.03
2019-03-30T01:08:02.356Z,933.02
2019-03-30T01:08:15.374Z,932.94
2019-03-30T01:08:28.374Z,932.94
2019-03-30T01:08:41.416Z,932.97
2019-03-30T01:08:54.491Z,932.97
2019-03-30T01:09:07.544Z,932.92
2019-03-30T01:09:20.559Z,932.95
2019-03-30T01:09:33.499Z,932.87
2019-03-30T01:09:46.586Z,932.94
2019-03-30T01:09:59.527Z,933.07
2019-03-30T01:10:12.502Z,932.96
2019-03-30T01:10:25.522Z,932.96
2019-03-30T01:10:38.451Z,932.95
2019-03-30T01:10:51.489Z,932.93
2019-03-30T01:11:04.450Z,932.99
2019-03-30T01:11:17.504Z,932.95
2019-03-30T01:11:30.457Z,932.98
2019-03-30T01:11:43.522Z,932.94
2019-03-30T01:11:56.576Z,932.91
2019-03-30T01:12:09.572Z,932.93
2019-03-30T01:12:22.627Z,932.89
2019-03-30T01:12:35.629Z,932.92
2019-03-30T01:12:48.650Z,932.94
2019-03-30T01:13:01.692Z,932.92
2019-03-30T01:13:14.689Z,932.95
2019-03-30T01:13:27.699Z,932.92
2019-03-30T01:13:40.694Z,932.92
2019-03-30T01:13:53.294Z,932.94
2019-03-30T01:14:06.315Z,932.95
2019-03-30T01:14:19.255Z,932.95
2019-03-30T01:14:32.260Z,932.92
2019-03-30T01:14:45.330Z,932.87
2019-03-30T01:14:58.366Z,932.86
2019-03-30T01:15:11.487Z,932.93
2019-03-30T01:15:23.946Z,932.88
2019-03-30T01:15:36.904Z,932.94
2019-03-30T01:15:49.946Z,932.95
2019-03-30T01:16:03.000Z,932.86
2019-03-30T01:16:16.010Z,932.91
2019-03-30T01:16:28.964Z,932.9
2019-03-30T01:16:42.028Z,932.88
2019-03-30T01:16:55.116Z,932.85
2019-03-30T01:17:08.149Z,932.87
2019-03-30T01:17:21.208Z,932.93
2019-03-30T01:17:34.159Z,932.86
2019-03-30T01:17:47.234Z,932.85
2019-03-30T01:17:59.809Z,932.87
2019-03-30T01:18:12.812Z,932.89
2019-03-30T01:18:25.881Z,932.9
2019-03-30T01:18:38.868Z,932.84
2019-03-30T01:18:51.923Z,932.86
2019-03-30T01:19:04.951Z,932.87
2019-03-30T01:19:17.985Z,932.86
2019-03-30T01:19:31.061Z,932.92
2019-03-30T01:19:44.113Z,932.87
2019-03-30T01:20:10.223Z,932.82
2019-03-30T01:20:23.252Z,932.87
2019-03-30T01:20:36.233Z,932.87
2019-03-30T01:20:49.190Z,932.85
2019-03-30T01:21:02.212Z,932.87
2019-03-30T01:21:15.242Z,932.91
2019-03-30T01:21:28.272Z,932.94
2019-03-30T01:21:41.345Z,932.87
2019-03-30T01:21:57.323Z,932.86
2019-03-30T01:22:10.398Z,932.93
2019-03-30T01:22:23.364Z,932.91
2019-03-30T01:22:36.484Z,932.92
2019-03-30T01:22:49.412Z,932.91
2019-03-30T01:23:02.551Z,932.91
2019-03-30T01:23:15.610Z,932.87
2019-03-30T01:23:28.627Z,932.85
2019-03-30T01:23:41.620Z,932.88
2019-03-30T01:23:54.630Z,932.9
2019-03-30T01:24:07.634Z,932.87
2019-03-30T01:24:20.706Z,932.87
2019-03-30T01:24:33.837Z,932.86
2019-03-30T01:24:47.186Z,932.91
2019-03-30T01:25:00.387Z,932.88
2019-03-30T01:25:13.418Z,932.9
2019-03-30T01:25:26.425Z,932.86
2019-03-30T01:25:39.449Z,932.86
2019-03-30T01:25:52.462Z,932.92
2019-03-30T01:26:04.982Z,932.87
2019-03-30T01:26:18.003Z,932.87
2019-03-30T01:26:31.106Z,932.87
2019-03-30T01:26:43.688Z,932.89
2019-03-30T01:26:56.670Z,932.85
2019-03-30T01:27:09.688Z,932.88
2019-03-30T01:27:22.644Z,932.82
2019-03-30T01:27:35.569Z,932.82
2019-03-30T01:27:48.630Z,932.82
2019-03-30T01:28:01.660Z,932.83
2019-03-30T01:28:14.757Z,932.81
2019-03-30T01:28:27.759Z,932.79
2019-03-30T01:28:40.783Z,932.79
2019-03-30T01:28:54.217Z,932.78
2019-03-30T01:29:07.199Z,932.84
2019-03-30T01:29:20.225Z,932.81
2019-03-30T01:29:33.307Z,932.82
2019-03-30T01:29:46.348Z,932.79
2019-03-30T01:29:59.339Z,932.77
2019-03-30T01:30:26.478Z,932.79
2019-03-30T01:30:39.145Z,932.82
2019-03-30T01:30:52.151Z,932.84
2019-03-30T01:31:05.113Z,932.81
2019-03-30T01:31:18.148Z,932.8
2019-03-30T01:31:31.128Z,932.79
2019-03-30T01:31:44.104Z,932.77
2019-03-30T01:31:57.254Z,932.81
2019-03-30T01:32:10.364Z,932.86
2019-03-30T01:32:23.334Z,932.84
2019-03-30T01:32:39.236Z,932.77
2019-03-30T01:32:52.286Z,932.83
2019-03-30T01:33:05.314Z,932.82
2019-03-30T01:33:18.242Z,932.81
2019-03-30T01:33:31.266Z,932.8
2019-03-30T01:33:44.368Z,932.72
2019-03-30T01:33:57.469Z,932.82
2019-03-30T01:34:10.451Z,932.8
2019-03-30T01:34:23.464Z,932.82
2019-03-30T01:34:36.394Z,932.78
2019-03-30T01:34:49.554Z,932.72
2019-03-30T01:35:02.666Z,932.77
2019-03-30T01:35:17.402Z,932.82
2019-03-30T01:35:31.189Z,932.82
2019-03-30T01:35:44.167Z,932.71
2019-03-30T01:35:57.363Z,932.8
2019-03-30T01:36:10.316Z,932.9
2019-03-30T01:36:23.305Z,932.91
2019-03-30T01:36:35.826Z,932.8
2019-03-30T01:36:48.882Z,932.76
2019-03-30T01:37:01.886Z,932.73
2019-03-30T01:37:14.888Z,932.83
2019-03-30T01:37:27.519Z,932.8
2019-03-30T01:37:40.551Z,932.79
2019-03-30T01:37:53.487Z,932.81
2019-03-30T01:38:06.437Z,932.82
2019-03-30T01:38:19.562Z,932.82
2019-03-30T01:38:32.565Z,932.82
2019-03-30T01:38:45.542Z,932.8
2019-03-30T01:38:58.514Z,932.72
2019-03-30T01:39:11.498Z,932.73
2019-03-30T01:39:24.471Z,932.8
2019-03-30T01:39:37.653Z,932.81
2019-03-30T01:39:50.716Z,932.76
2019-03-30T01:40:03.739Z,932.76
2019-03-30T01:40:16.396Z,932.76
2019-03-30T01:40:29.418Z,932.75
2019-03-30T01:40:42.525Z,932.79
2019-03-30T01:40:55.532Z,932.8
2019-03-30T01:41:08.507Z,932.77
2019-03-30T01:41:21.526Z,932.84
2019-03-30T01:41:34.576Z,932.83
2019-03-30T01:41:47.626Z,932.82
2019-03-30T01:42:00.601Z,932.75
2019-03-30T01:42:13.711Z,932.79
2019-03-30T01:42:26.847Z,932.78
2019-03-30T01:42:39.882Z,932.77
2019-03-30T01:42:52.780Z,932.78
2019-03-30T01:43:05.368Z,932.78
2019-03-30T01:43:18.383Z,932.85
2019-03-30T01:43:31.425Z,932.76
2019-03-30T01:43:44.478Z,932.8
2019-03-30T01:43:57.482Z,932.76
2019-03-30T01:44:10.473Z,932.76
2019-03-30T01:44:23.421Z,932.76
2019-03-30T01:44:36.396Z,932.85
2019-03-30T01:44:49.484Z,932.83
2019-03-30T01:45:02.559Z,932.8
2019-03-30T01:45:15.662Z,932.83
2019-03-30T01:45:28.277Z,932.85
2019-03-30T01:45:41.313Z,932.81
2019-03-30T01:45:54.321Z,932.79
2019-03-30T01:46:06.930Z,932.81
2019-03-30T01:46:19.959Z,932.86
2019-03-30T01:46:32.985Z,932.81
2019-03-30T01:46:46.066Z,932.79
2019-03-30T01:46:59.169Z,932.82
2019-03-30T01:47:12.225Z,932.82
2019-03-30T01:47:24.688Z,932.84
2019-03-30T01:47:37.222Z,932.83
2019-03-30T01:47:50.246Z,932.76
2019-03-30T01:48:03.363Z,932.78
2019-03-30T01:48:16.504Z,932.76
2019-03-30T01:48:29.058Z,932.76
2019-03-30T01:48:42.149Z,932.73
2019-03-30T01:48:55.130Z,932.76
2019-03-30T01:49:08.060Z,932.8
2019-03-30T01:49:21.032Z,932.77
2019-03-30T01:49:34.012Z,932.77
2019-03-30T01:49:47.169Z,932.73
2019-03-30T01:50:00.391Z,932.72
2019-03-30T01:50:26.805Z,932.8
2019-03-30T01:50:39.825Z,932.77
2019-03-30T01:50:52.838Z,932.68
2019-03-30T01:51:05.892Z,932.75
2019-03-30T01:51:18.917Z,932.74
2019-03-30T01:51:31.936Z,932.81
2019-03-30T01:51:44.951Z,932.75
2019-03-30T01:51:57.935Z,932.79
2019-03-30T01:52:10.959Z,932.82
2019-03-30T01:52:23.519Z,932.77
2019-03-30T01:52:36.592Z,932.76
2019-03-30T01:52:49.586Z,932.73
2019-03-30T01:53:02.671Z,932.74
2019-03-30T01:53:15.799Z,932.73
2019-03-30T01:53:28.748Z,932.71
2019-03-30T01:53:41.788Z,932.73
2019-03-30T01:53:54.777Z,932.7
2019-03-30T01:54:07.821Z,932.69
2019-03-30T01:54:20.798Z,932.72
2019-03-30T01:54:33.901Z,932.71
2019-03-30T01:54:47.197Z,932.71
2019-03-30T01:55:00.443Z,932.74
2019-03-30T01:55:13.558Z,932.74
2019-03-30T01:55:26.583Z,932.77
2019-03-30T01:55:39.637Z,932.71
2019-03-30T01:55:52.582Z,932.71
2019-03-30T01:56:05.657Z,932.74
2019-03-30T01:56:18.696Z,932.7
2019-03-30T01:56:31.614Z,932.71
2019-03-30T01:56:44.558Z,932.7
2019-03-30T01:56:57.594Z,932.69
2019-03-30T01:57:10.190Z,932.73
2019-03-30T01:57:23.243Z,932.64
2019-03-30T01:57:36.287Z,932.7
2019-03-30T01:57:49.353Z,932.7
2019-03-30T01:58:02.426Z,932.67
2019-03-30T01:58:15.396Z,932.68
2019-03-30T01:58:28.419Z,932.65
2019-03-30T01:58:41.426Z,932.65
2019-03-30T01:58:54.514Z,932.6
2019-03-30T01:59:07.585Z,932.67
2019-03-30T01:59:20.621Z,932.71
2019-03-30T01:59:33.612Z,932.68
2019-03-30T01:59:46.626Z,932.67
2019-03-30T01:59:59.599Z,932.63
2019-03-30T02:00:12.666Z,932.64
2019-03-30T02:00:25.758Z,932.63
2019-03-30T02:00:38.745Z,932.62
2019-03-30T02:00:51.778Z,932.63
2019-03-30T02:01:04.332Z,932.61
2019-03-30T02:01:17.477Z,932.62
2019-03-30T02:01:30.485Z,932.6
2019-03-30T02:01:43.523Z,932.6
2019-03-30T02:01:56.547Z,932.56
2019-03-30T02:02:08.657Z,932.59
2019-03-30T02:02:21.789Z,932.56
2019-03-30T02:02:34.802Z,932.58
2019-03-30T02:02:47.814Z,932.56
2019-03-30T02:03:00.410Z,932.55
2019-03-30T02:03:13.446Z,932.59
2019-03-30T02:03:26.483Z,932.54
2019-03-30T02:03:39.483Z,932.54
2019-03-30T02:03:52.460Z,932.59
2019-03-30T02:04:05.458Z,932.56
2019-03-30T02:04:18.617Z,932.61
2019-03-30T02:04:31.167Z,932.57
2019-03-30T02:04:44.227Z,932.53
2019-03-30T02:04:57.138Z,932.56
2019-03-30T02:05:10.248Z,932.53
2019-03-30T02:05:23.300Z,932.57
2019-03-30T02:05:37.140Z,932.53
2019-03-30T02:05:50.087Z,932.58
2019-03-30T02:06:03.145Z,932.55
2019-03-30T02:06:16.096Z,932.63
2019-03-30T02:06:29.120Z,932.62
2019-03-30T02:06:42.070Z,932.57
2019-03-30T02:06:54.579Z,932.53
2019-03-30T02:07:07.625Z,932.6
2019-03-30T02:07:20.662Z,932.56
2019-03-30T02:07:33.758Z,932.52
2019-03-30T02:07:46.821Z,932.56
2019-03-30T02:07:59.766Z,932.5
2019-03-30T02:08:12.309Z,932.54
2019-03-30T02:08:25.342Z,932.58
2019-03-30T02:08:38.356Z,932.57
2019-03-30T02:08:51.348Z,932.53
2019-03-30T02:09:04.365Z,932.55
2019-03-30T02:09:17.402Z,932.55
2019-03-30T02:09:30.401Z,932.57
2019-03-30T02:09:43.337Z,932.61
2019-03-30T02:09:56.281Z,932.54
2019-03-30T02:10:09.259Z,932.59
2019-03-30T02:10:22.289Z,932.6
2019-03-30T02:10:35.289Z,932.57
2019-03-30T02:10:48.386Z,932.55
2019-03-30T02:11:01.396Z,932.63
2019-03-30T02:11:14.416Z,932.52
2019-03-30T02:11:27.338Z,932.5
2019-03-30T02:11:40.312Z,932.57
2019-03-30T02:11:53.419Z,932.53
2019-03-30T02:12:06.488Z,932.56
2019-03-30T02:12:19.488Z,932.57
2019-03-30T02:12:32.497Z,932.57
2019-03-30T02:12:45.582Z,932.55
2019-03-30T02:12:58.582Z,932.55
2019-03-30T02:13:11.620Z,932.56
2019-03-30T02:13:24.731Z,932.6
2019-03-30T02:13:37.798Z,932.57
2019-03-30T02:13:50.805Z,932.56
2019-03-30T02:14:03.877Z,932.54
2019-03-30T02:14:16.986Z,932.55
2019-03-30T02:14:29.946Z,932.56
2019-03-30T02:14:42.961Z,932.55
2019-03-30T02:14:55.980Z,932.6
2019-03-30T02:15:09.015Z,932.55
2019-03-30T02:15:22.008Z,932.51
2019-03-30T02:15:35.111Z,932.52
2019-03-30T02:15:48.029Z,932.48
2019-03-30T02:16:01.135Z,932.53
2019-03-30T02:16:14.133Z,932.51
2019-03-30T02:16:26.656Z,932.51
2019-03-30T02:16:39.617Z,932.47
2019-03-30T02:16:52.554Z,932.52
2019-03-30T02:17:05.543Z,932.49
2019-03-30T02:17:21.300Z,932.5
2019-03-30T02:17:34.257Z,932.53
2019-03-30T02:17:47.402Z,932.45
2019-03-30T02:18:00.416Z,932.46
2019-03-30T02:18:13.455Z,932.46
2019-03-30T02:18:26.445Z,932.45
2019-03-30T02:18:39.448Z,932.45
2019-03-30T02:18:52.428Z,932.44
2019-03-30T02:19:05.487Z,932.41
2019-03-30T02:19:18.498Z,932.45
2019-03-30T02:19:31.476Z,932.47
2019-03-30T02:19:44.549Z,932.4
2019-03-30T02:19:57.515Z,932.41
2019-03-30T02:20:10.483Z,932.42
2019-03-30T02:20:38.461Z,932.37
2019-03-30T02:20:51.469Z,932.41
2019-03-30T02:21:04.554Z,932.49
2019-03-30T02:21:17.694Z,932.46
2019-03-30T02:21:30.797Z,932.42
2019-03-30T02:21:43.886Z,932.43
2019-03-30T02:21:56.962Z,932.45
2019-03-30T02:22:09.963Z,932.43
2019-03-30T02:22:22.913Z,932.42
2019-03-30T02:22:35.459Z,932.45
2019-03-30T02:22:48.569Z,932.41
2019-03-30T02:23:01.546Z,932.4
2019-03-30T02:23:14.668Z,932.44
2019-03-30T02:23:27.655Z,932.48
2019-03-30T02:23:40.758Z,932.42
2019-03-30T02:23:53.766Z,932.46
2019-03-30T02:24:06.253Z,932.4
2019-03-30T02:24:19.241Z,932.36
2019-03-30T02:24:32.232Z,932.38
2019-03-30T02:24:44.785Z,932.39
2019-03-30T02:24:57.770Z,932.41
2019-03-30T02:25:10.784Z,932.38
2019-03-30T02:25:23.846Z,932.37
2019-03-30T02:25:36.865Z,932.41
2019-03-30T02:25:49.875Z,932.43
2019-03-30T02:26:02.822Z,932.42
2019-03-30T02:26:15.847Z,932.43
2019-03-30T02:26:28.858Z,932.42
2019-03-30T02:26:41.928Z,932.42
2019-03-30T02:26:54.930Z,932.41
2019-03-30T02:27:07.903Z,932.42
2019-03-30T02:27:20.886Z,932.43
2019-03-30T02:27:33.892Z,932.43
2019-03-30T02:27:46.859Z,932.4
2019-03-30T02:27:59.862Z,932.42
2019-03-30T02:28:14.154Z,932.42
2019-03-30T02:28:27.254Z,932.46
2019-03-30T02:28:40.291Z,932.51
2019-03-30T02:28:53.283Z,932.4
2019-03-30T02:29:06.315Z,932.45
2019-03-30T02:29:19.323Z,932.46
2019-03-30T02:29:32.347Z,932.48
2019-03-30T02:29:45.405Z,932.46
2019-03-30T02:29:58.351Z,932.44
2019-03-30T02:30:11.452Z,932.46
2019-03-30T02:30:24.510Z,932.49
2019-03-30T02:30:37.567Z,932.49
2019-03-30T02:30:50.678Z,932.44
2019-03-30T02:31:03.711Z,932.45
2019-03-30T02:31:16.789Z,932.44
2019-03-30T02:31:29.780Z,932.47
2019-03-30T02:31:42.879Z,932.47
2019-03-30T02:31:55.896Z,932.42
2019-03-30T02:32:09.003Z,932.47
2019-03-30T02:32:22.003Z,932.47
2019-03-30T02:32:35.033Z,932.47
2019-03-30T02:32:48.043Z,932.45
2019-03-30T02:33:01.253Z,932.47
2019-03-30T02:33:14.339Z,932.48
2019-03-30T02:33:27.405Z,932.47
2019-03-30T02:33:40.570Z,932.44
2019-03-30T02:33:53.668Z,932.49
2019-03-30T02:34:06.693Z,932.44
2019-03-30T02:34:19.746Z,932.45
2019-03-30T02:34:32.750Z,932.47
2019-03-30T02:34:45.826Z,932.49
2019-03-30T02:34:58.873Z,932.45
2019-03-30T02:35:11.867Z,932.46
2019-03-30T02:35:27.602Z,932.42
2019-03-30T02:35:41.409Z,932.48
2019-03-30T02:35:54.438Z,932.57
2019-03-30T02:36:07.476Z,932.46
2019-03-30T02:36:20.520Z,932.43
2019-03-30T02:36:33.633Z,932.53
2019-03-30T02:36:46.616Z,932.46
2019-03-30T02:36:59.622Z,932.51
2019-03-30T02:37:12.203Z,932.46
2019-03-30T02:37:25.119Z,932.46
2019-03-30T02:37:38.191Z,932.47
2019-03-30T02:37:51.179Z,932.45
2019-03-30T02:38:04.325Z,932.47
2019-03-30T02:38:17.147Z,932.48
2019-03-30T02:38:30.299Z,932.46
2019-03-30T02:38:43.327Z,932.4
2019-03-30T02:38:56.439Z,932.47
2019-03-30T02:39:09.451Z,932.42
2019-03-30T02:39:22.503Z,932.46
2019-03-30T02:39:35.561Z,932.49
2019-03-30T02:39:48.666Z,932.46
2019-03-30T02:40:01.740Z,932.38
2019-03-30T02:40:14.890Z,932.44
2019-03-30T02:40:27.978Z,932.45
2019-03-30T02:40:41.076Z,932.42
2019-03-30T02:40:54.073Z,932.45
2019-03-30T02:41:07.039Z,932.44
2019-03-30T02:41:19.628Z,932.44
2019-03-30T02:41:32.680Z,932.43
2019-03-30T02:41:45.218Z,932.43
2019-03-30T02:41:58.335Z,932.43
2019-03-30T02:42:11.277Z,932.41
2019-03-30T02:42:24.418Z,932.39
2019-03-30T02:42:37.473Z,932.43
2019-03-30T02:42:50.627Z,932.42
2019-03-30T02:43:03.550Z,932.41
2019-03-30T02:43:16.639Z,932.43
2019-03-30T02:43:29.337Z,932.42
2019-03-30T02:43:41.990Z,932.42
2019-03-30T02:43:55.002Z,932.44
2019-03-30T02:44:08.015Z,932.39
2019-03-30T02:44:20.617Z,932.39
2019-03-30T02:44:33.748Z,932.44
2019-03-30T02:44:46.708Z,932.49